Tipton Airport
KFME : now visible

Airfield :











YOU CAN JOIN US ON...

 
LOGIN :

Register | Disclaimer

   EN    FR    IT 

 









Legend :    VFR   Marginal VFR   IFR   Intensive IFR   Very Intensive IFR
Visi :
Ceiling :
>= 8 km
>= 3000ft
5 to 8 km
1000 to 3000 ft
1500m to 5 km
500 to 1000 ft
800 to 1500m
200 to 500 ft
< 800m
< 200 ft
Symbols :   Thunderstorms  Fog  Heavy snow  Heavy precipitations  Wind > 20 kt






- Airport Elevation : 150 ft


KFME - Tipton

CURRENT METAR :
  • 221435Z AUTO 36005KT 10SM CLR M07/M15 A3046 RMK AO1

EXPIRED METARs :
  • 221415Z AUTO 36005KT 10SM CLR M07/M15 A3048 RMK AO1
  • 221355Z AUTO 35005KT 10SM CLR M08/M15 A3048 RMK AO1
  • 221335Z AUTO 01004KT 10SM SCT025 M08/M15 A3046 RMK AO1
  • 221315Z AUTO 00000KT 10SM SCT025 M09/M15 A3047 RMK AO1
  • 221255Z AUTO 34004KT 10SM CLR M10/M15 A3047 RMK AO1
  • 221235Z AUTO 00000KT 10SM CLR M10/M15 A3046 RMK AO1
  • 221215Z AUTO 35003KT 10SM CLR M10/M15 A3046 RMK AO1
  • 221155Z AUTO 01003KT 10SM CLR M10/M15 A3045 RMK AO1

TAF N/A
KZDC FIR / North America



MET'MAP, your aeronautical weather chart ! - Copyright ORBIFLY December 2007 - Disclaimer

ORBIFLY MET'MAP TEAM :

Programming & Development : Alexandra Zaïnal
Concept & original design : Baudouin d'Aumeries
Assistance for programming : Marc-Olivier Méhu
Technical & hardware support : Manuel Goepfert

Contact : metmap@orbifly.com




SOURCES & CREDITS :

   NOAA       Earth
Advisory